Time;durP1;ratioP1;P1;durP2;ratioP2;P2;SDS_P1;SDS_P2;PMS_P1;PMS_P2;Temp;Humidity;BMP_temperature;BMP_pressure;BME280_temperature;BME280_humidity;BME280_pressure;Samples;Min_cycle;Max_cycle;Signal;HPM_P1;HPM_P2
2021/04/29 00:01:08;;;;;;;75.65;39.40;;;;;;;7.62;39.85;97610.19;5017742;28;20032;-74
2021/04/29 00:03:36;;;;;;;83.15;41.10;;;;;;;7.58;39.41;97609.94;5015912;28;20025;-75
2021/04/29 00:06:05;;;;;;;88.70;41.40;;;;;;;7.50;39.94;97602.47;5022938;28;20022;-74
2021/04/29 00:08:32;;;;;;;83.45;39.88;;;;;;;7.43;39.56;97611.00;5025986;28;20470;-74
2021/04/29 00:10:57;;;;;;;86.05;40.13;;;;;;;7.36;40.17;97605.09;5025235;28;20033;-75
2021/04/29 00:13:23;;;;;;;79.05;37.22;;;;;;;7.33;40.07;97603.00;5024737;28;20013;-75
2021/04/29 00:15:48;;;;;;;80.45;36.70;;;;;;;7.29;40.26;97609.03;5025022;28;20065;-76
2021/04/29 00:18:15;;;;;;;75.97;35.30;;;;;;;7.29;40.21;97610.94;5025093;28;20036;-76
2021/04/29 00:20:40;;;;;;;74.15;32.63;;;;;;;7.29;40.63;97611.78;5020730;28;20132;-75
2021/04/29 00:23:06;;;;;;;68.00;30.70;;;;;;;7.29;40.67;97609.03;5017642;28;20100;-75
2021/04/29 00:25:31;;;;;;;70.45;31.50;;;;;;;7.29;40.21;97602.75;5017329;28;20032;-75
2021/04/29 00:27:57;;;;;;;72.43;31.17;;;;;;;7.23;40.08;97612.13;5025313;28;20045;-74
2021/04/29 00:30:22;;;;;;;69.13;32.25;;;;;;;7.23;40.59;97612.13;5056394;28;20071;-75
2021/04/29 00:32:48;;;;;;;66.53;32.80;;;;;;;7.18;40.87;97610.28;5023038;28;20035;-75
2021/04/29 00:35:13;;;;;;;75.65;34.47;;;;;;;7.13;40.84;97624.78;5024856;28;20200;-75
2021/04/29 00:37:39;;;;;;;78.65;34.50;;;;;;;7.11;41.20;97612.56;5024496;28;20060;-76
2021/04/29 00:40:06;;;;;;;77.10;33.70;;;;;;;7.13;40.81;97610.34;5025184;28;20034;-75
2021/04/29 00:42:36;;;;;;;70.70;31.58;;;;;;;7.10;41.15;97614.50;5017974;28;20026;-75
2021/04/29 00:45:01;;;;;;;;;;;;;;;7.07;40.90;97619.72;5016228;28;20116;-75
2021/04/29 00:47:26;;;;;;;74.10;36.25;;;;;;;6.99;41.40;97615.72;5019449;28;20354;-75
2021/04/29 00:49:52;;;;;;;78.78;35.45;;;;;;;6.94;41.71;97619.31;5024973;28;20017;-75
2021/04/29 00:52:17;;;;;;;78.70;34.33;;;;;;;6.91;41.23;97613.66;5025246;28;20036;-75
2021/04/29 00:54:43;;;;;;;76.05;34.15;;;;;;;6.82;41.56;97619.75;5025216;28;20027;-75
2021/04/29 00:57:08;;;;;;;66.82;32.60;;;;;;;6.82;41.84;97617.03;5024621;28;20033;-75
2021/04/29 00:59:33;;;;;;;69.25;33.35;;;;;;;6.80;42.07;97616.50;5024489;28;20033;-75
2021/04/29 01:02:02;;;;;;;70.47;33.33;;;;;;;6.78;41.85;97616.00;5023230;28;20144;-75
2021/04/29 01:04:36;;;;;;;72.22;32.58;;;;;;;6.76;41.66;97606.50;5016277;28;20030;-75
2021/04/29 01:07:07;;;;;;;75.28;34.00;;;;;;;6.70;42.31;97612.00;5034597;28;20025;-75
2021/04/29 01:10:07;;;;;;;71.80;33.90;;;;;;;6.61;41.67;97611.03;5043143;28;20032;-75
2021/04/29 01:12:40;;;;;;;72.10;34.45;;;;;;;6.55;42.59;97602.09;5029792;28;20091;-75
2021/04/29 01:15:07;;;;;;;69.47;31.48;;;;;;;6.48;42.69;97612.53;5044110;28;20110;-75
2021/04/29 01:17:35;;;;;;;68.43;31.05;;;;;;;6.45;43.08;97610.41;5043845;28;20135;-75
2021/04/29 01:20:28;;;;;;;68.22;30.33;;;;;;;6.46;42.52;97611.22;5044194;28;20029;-74
2021/04/29 01:23:06;;;;;;;68.22;30.88;;;;;;;6.45;42.98;97612.31;5042521;28;20112;-75
2021/04/29 01:25:34;;;;;;;64.95;31.02;;;;;;;6.43;43.05;97615.31;5034233;28;20029;-75
2021/04/29 01:28:00;;;;;;;69.45;32.97;;;;;;;6.44;43.08;97608.78;5034090;28;20025;-75
2021/04/29 01:30:27;;;;;;;75.20;33.70;;;;;;;6.41;43.19;97606.63;5042576;28;20051;-75
2021/04/29 01:32:54;;;;;;;70.95;33.95;;;;;;;6.42;43.22;97607.44;5043566;28;20075;-75
2021/04/29 01:35:19;;;;;;;75.13;34.30;;;;;;;6.40;43.65;97610.44;5043852;28;20029;-75
2021/04/29 01:37:47;;;;;;;76.13;35.80;;;;;;;6.43;42.86;97609.06;5043311;28;20377;-75
2021/04/29 01:40:14;;;;;;;74.45;33.75;;;;;;;6.40;43.53;97616.72;5043571;28;20079;-75
2021/04/29 01:42:39;;;;;;;77.50;34.25;;;;;;;6.38;43.33;97610.75;5043334;28;20017;-75
2021/04/29 01:45:07;;;;;;;65.88;32.50;;;;;;;6.41;43.45;97614.78;5037886;28;20549;-75
2021/04/29 01:47:34;;;;;;;72.90;34.42;;;;;;;6.37;43.19;97609.13;5032140;28;20059;-76
2021/04/29 01:50:05;;;;;;;74.15;33.92;;;;;;;6.37;43.52;97602.84;5037222;28;20021;-75
2021/04/29 01:52:31;;;;;;;76.97;34.15;;;;;;;6.38;43.47;97610.75;5042682;28;20025;-75
2021/04/29 01:54:57;;;;;;;73.45;34.05;;;;;;;6.41;43.71;97606.63;5043597;28;20025;-75
2021/04/29 01:57:23;;;;;;;74.63;33.97;;;;;;;6.44;43.94;97606.03;5041694;28;20086;-74
2021/04/29 01:59:48;;;;;;;76.85;34.17;;;;;;;6.46;43.92;97609.28;5043128;28;20025;-75
2021/04/29 02:02:14;;;;;;;76.78;33.45;;;;;;;6.47;44.04;97610.13;5040994;28;20031;-76
2021/04/29 02:04:39;;;;;;;73.05;33.53;;;;;;;6.44;43.38;97608.78;5025923;28;20056;-75
2021/04/29 02:07:05;;;;;;;73.13;34.00;;;;;;;6.44;44.01;97602.53;5017112;28;20029;-75
2021/04/29 02:09:30;;;;;;;67.22;34.28;;;;;;;6.43;43.97;97607.16;5019542;28;20111;-75
2021/04/29 02:11:57;;;;;;;66.75;33.15;;;;;;;6.38;43.72;97601.75;5024026;28;20026;-75
2021/04/29 02:14:32;;;;;;;77.03;34.38;;;;;;;6.36;43.55;97603.94;5027061;28;20021;-75
2021/04/29 02:17:02;;;;;;;79.82;34.30;;;;;;;6.29;43.51;97598.06;5046504;28;20554;-74
2021/04/29 02:19:30;;;;;;;71.85;33.03;;;;;;;6.23;43.92;97600.84;5046416;28;20178;-75
2021/04/29 02:21:57;;;;;;;72.85;31.75;;;;;;;6.21;43.88;97603.03;5046470;28;20036;-74
2021/04/29 02:24:23;;;;;;;74.78;33.40;;;;;;;6.20;44.28;97601.41;5046385;28;20040;-75
2021/04/29 02:26:50;;;;;;;74.20;33.08;;;;;;;6.18;44.61;97605.50;5042547;28;20489;-74
2021/04/29 02:29:18;;;;;;;74.03;34.33;;;;;;;6.19;44.21;97596.25;5053283;28;20021;-74
2021/04/29 02:31:44;;;;;;;73.88;33.83;;;;;;;6.15;44.44;97590.56;5053176;28;20025;-74
2021/04/29 02:34:10;;;;;;;71.22;33.30;;;;;;;6.16;44.44;97592.19;5053026;28;20481;-75
2021/04/29 02:36:35;;;;;;;71.63;33.72;;;;;;;6.18;44.55;97600.06;5052823;28;20032;-75
2021/04/29 02:39:03;;;;;;;73.38;34.17;;;;;;;6.16;44.85;97592.19;5052915;28;20092;-74
2021/04/29 02:41:29;;;;;;;65.20;33.58;;;;;;;6.18;44.48;97587.28;5053023;28;20036;-75
2021/04/29 02:43:54;;;;;;;82.45;35.17;;;;;;;6.16;45.09;97585.94;5051988;28;20124;-75
2021/04/29 02:46:20;;;;;;;69.60;34.58;;;;;;;6.14;44.55;97579.97;5054459;28;20037;-76
2021/04/29 02:48:46;;;;;;;77.13;34.78;;;;;;;6.10;44.93;97580.56;5053688;28;20025;-75
2021/04/29 02:51:12;;;;;;;79.18;35.55;;;;;;;6.14;44.91;97588.13;5053484;28;20126;-75
2021/04/29 02:53:41;;;;;;;71.80;35.50;;;;;;;6.13;44.94;97587.31;5053631;28;20025;-75
2021/04/29 02:56:07;;;;;;;72.40;36.22;;;;;;;6.13;45.34;97584.59;5053659;28;20013;-75
2021/04/29 02:58:48;;;;;;;78.65;37.10;;;;;;;6.10;44.89;97580.56;5053535;28;20059;-75
2021/04/29 03:01:14;;;;;;;81.55;36.72;;;;;;;6.07;45.05;97583.03;5053876;28;20388;-75
2021/04/29 03:03:41;;;;;;;77.55;36.55;;;;;;;6.09;44.97;97575.38;5054590;28;20090;-75
2021/04/29 03:06:06;;;;;;;70.68;35.67;;;;;;;6.07;45.02;97583.88;5053397;28;20025;-75
2021/04/29 03:08:32;;;;;;;80.00;35.25;;;;;;;6.09;45.27;97586.28;5054686;28;20032;-75
2021/04/29 03:10:58;;;;;;;74.45;34.88;;;;;;;6.06;45.50;97584.13;5054522;28;20024;-76
2021/04/29 03:13:24;;;;;;;74.45;34.72;;;;;;;6.06;45.90;97582.25;5054641;28;20036;-75
2021/04/29 03:15:49;;;;;;;70.78;34.95;;;;;;;6.04;45.26;97581.72;5054212;28;20416;-75
2021/04/29 03:18:14;;;;;;;76.15;34.70;;;;;;;6.03;45.19;97585.53;5053848;28;20380;-75
2021/04/29 03:20:41;;;;;;;79.30;36.50;;;;;;;6.01;45.61;97585.00;5053469;28;20061;-75
2021/04/29 03:23:06;;;;;;;82.63;37.33;;;;;;;5.98;45.43;97577.38;5054215;28;20362;-75
2021/04/29 03:25:32;;;;;;;88.88;40.05;;;;;;;6.00;46.15;97577.94;5054001;28;20043;-75
2021/04/29 03:27:57;;;;;;;93.47;40.10;;;;;;;6.01;45.29;97578.75;5054018;28;20477;-75
2021/04/29 03:30:23;;;;;;;85.82;38.67;;;;;;;5.96;45.53;97588.53;5052604;28;20076;-75
2021/04/29 03:32:49;;;;;;;90.07;39.45;;;;;;;5.93;45.57;97583.66;5053866;28;20103;-75
2021/04/29 03:35:14;;;;;;;94.50;39.40;;;;;;;5.94;46.04;97581.78;5053661;28;20083;-75
2021/04/29 03:37:40;;;;;;;88.85;40.03;;;;;;;5.91;45.55;97583.16;5053668;28;20020;-74
2021/04/29 03:40:05;;;;;;;88.97;41.22;;;;;;;5.86;45.98;97582.41;5053474;28;20044;-75
2021/04/29 03:42:31;;;;;;;99.22;43.38;;;;;;;5.77;46.26;97588.44;5053767;28;20032;-75
2021/04/29 03:44:56;;;;;;;103.35;43.55;;;;;;;5.77;46.96;97595.81;5053533;28;20531;-75
2021/04/29 03:47:22;;;;;;;96.78;42.85;;;;;;;5.78;46.95;97586.56;5053667;28;20025;-75
2021/04/29 03:49:47;;;;;;;98.60;43.53;;;;;;;5.78;46.61;97589.28;5053516;28;20477;-75
2021/04/29 03:52:12;;;;;;;102.13;44.80;;;;;;;5.81;46.65;97589.50;5053468;28;20009;-75
2021/04/29 03:54:38;;;;;;;116.03;48.15;;;;;;;5.85;46.61;97591.66;5053465;28;20029;-75
2021/04/29 03:57:04;;;;;;;119.05;49.47;;;;;;;5.86;46.95;97587.84;5053363;28;20473;-75
2021/04/29 03:59:29;;;;;;;115.40;47.20;;;;;;;5.88;46.69;97589.19;5053257;28;20025;-75
2021/04/29 04:01:54;;;;;;;110.15;47.17;;;;;;;5.92;46.90;97581.25;5053249;28;20029;-75
2021/04/29 04:04:20;;;;;;;113.40;45.25;;;;;;;5.96;47.52;97582.31;5053040;28;20509;-75
2021/04/29 04:06:45;;;;;;;110.43;45.70;;;;;;;6.03;47.46;97577.38;5053399;28;20028;-75
2021/04/29 04:09:11;;;;;;;104.45;43.75;;;;;;;6.12;47.12;97574.81;5051961;28;20064;-75
2021/04/29 04:11:36;;;;;;;97.93;42.58;;;;;;;6.23;47.51;97580.97;5053115;28;20055;-75
2021/04/29 04:14:02;;;;;;;91.55;39.55;;;;;;;6.30;47.48;97573.25;5053045;28;20052;-74
2021/04/29 04:16:29;;;;;;;93.00;40.67;;;;;;;6.37;47.92;97572.91;5052904;28;20485;-75
2021/04/29 04:18:54;;;;;;;94.07;43.70;;;;;;;6.47;47.88;97571.97;5053215;28;20029;-75
2021/04/29 04:21:20;;;;;;;96.47;43.53;;;;;;;6.52;47.05;97578.16;5052870;28;20029;-75
2021/04/29 04:23:45;;;;;;;100.30;44.58;;;;;;;6.64;47.86;97571.50;5053037;28;20465;-75
2021/04/29 04:26:11;;;;;;;95.13;43.28;;;;;;;6.75;48.01;97572.16;5053024;28;20461;-75
2021/04/29 04:28:36;;;;;;;96.53;43.70;;;;;;;6.89;47.51;97574.97;5052864;28;20363;-75
2021/04/29 04:31:02;;;;;;;89.15;42.03;;;;;;;7.01;47.43;97569.91;5052308;28;20025;-75
2021/04/29 04:33:27;;;;;;;84.22;38.92;;;;;;;7.17;47.59;97572.38;5052922;28;20032;-75
2021/04/29 04:35:52;;;;;;;95.93;39.70;;;;;;;7.32;47.72;97577.63;5052635;28;20386;-75
2021/04/29 04:38:18;;;;;;;91.35;40.65;;;;;;;7.47;47.71;97573.03;5052668;28;20036;-75
2021/04/29 04:40:44;;;;;;;90.95;40.35;;;;;;;7.59;47.26;97573.38;5052803;28;20025;-75
2021/04/29 04:43:09;;;;;;;91.20;42.67;;;;;;;7.73;47.37;97574.22;5052864;28;20029;-75
2021/04/29 04:45:35;;;;;;;88.05;40.70;;;;;;;7.87;47.29;97570.72;5052563;28;20101;-75
2021/04/29 04:48:00;;;;;;;83.50;40.08;;;;;;;8.02;47.83;97564.97;5052606;28;20060;-75
2021/04/29 04:50:25;;;;;;;93.93;41.08;;;;;;;8.18;47.43;97557.28;5052589;28;20021;-75
2021/04/29 04:52:51;;;;;;;87.25;40.58;;;;;;;8.32;47.58;97570.97;5052439;28;20029;-75
2021/04/29 04:55:16;;;;;;;76.57;37.85;;;;;;;8.49;47.79;97556.75;5052786;28;20035;-75
2021/04/29 04:57:42;;;;;;;86.25;39.67;;;;;;;8.67;48.27;97567.03;5052427;28;20476;-74
2021/04/29 05:00:08;;;;;;;90.22;40.25;;;;;;;8.81;47.76;97558.81;5052392;28;20033;-75
2021/04/29 05:02:37;;;;;;;97.68;42.67;;;;;;;8.95;48.32;97556.88;5052382;28;20404;-75
2021/04/29 05:05:04;;;;;;;106.13;46.63;;;;;;;9.09;48.29;97559.56;5052620;28;20436;-75
2021/04/29 05:07:31;;;;;;;103.40;44.80;;;;;;;9.21;48.33;97559.00;5052266;28;20485;-75
2021/04/29 05:09:56;;;;;;;99.03;43.25;;;;;;;9.33;48.28;97553.81;5052129;28;20140;-75
2021/04/29 05:12:22;;;;;;;93.18;41.60;;;;;;;9.39;48.37;97549.00;5052321;28;20509;-75
2021/04/29 05:14:47;;;;;;;96.30;42.17;;;;;;;9.53;48.11;97559.91;5052156;28;20029;-75
2021/04/29 05:17:12;;;;;;;91.80;42.30;;;;;;;9.64;47.87;97557.72;5051969;28;20124;-75
2021/04/29 05:19:37;;;;;;;87.80;41.13;;;;;;;9.76;48.12;97554.41;5052138;28;20029;-75
2021/04/29 05:22:03;;;;;;;93.00;43.53;;;;;;;9.89;48.23;97560.94;5052026;28;20029;-74
2021/04/29 05:24:28;;;;;;;92.22;43.25;;;;;;;10.04;48.62;97559.72;5052043;28;20029;-75
2021/04/29 05:26:54;;;;;;;80.95;38.80;;;;;;;10.12;48.53;97553.47;5052011;28;20039;-75
2021/04/29 05:29:19;;;;;;;70.35;35.35;;;;;;;10.23;48.46;97549.31;5052064;28;20112;-75
2021/04/29 05:31:45;;;;;;;76.32;35.78;;;;;;;10.34;48.57;97551.78;5052082;28;20064;-76
2021/04/29 05:34:10;;;;;;;78.28;38.17;;;;;;;10.46;48.52;97541.06;5051975;28;20021;-75
2021/04/29 05:36:36;;;;;;;75.63;37.25;;;;;;;10.60;48.49;97543.66;5051879;28;20074;-75
2021/04/29 05:39:02;;;;;;;66.60;32.67;;;;;;;10.75;48.64;97545.16;5051816;28;20075;-75
2021/04/29 05:41:28;;;;;;;62.17;30.30;;;;;;;10.89;48.10;97536.78;5052036;28;20017;-75
2021/04/29 05:43:54;;;;;;;64.47;31.55;;;;;;;10.94;49.32;97533.88;5055339;28;20021;-75
2021/04/29 05:46:19;;;;;;;63.35;32.00;;;;;;;10.97;48.74;97530.50;5055837;28;20047;-76
2021/04/29 05:48:44;;;;;;;55.30;28.20;;;;;;;11.09;49.07;97535.31;5056056;28;20028;-75
2021/04/29 05:51:10;;;;;;;60.72;30.77;;;;;;;11.17;49.00;97531.00;5055922;28;20099;-76
2021/04/29 05:53:35;;;;;;;51.08;26.52;;;;;;;11.31;49.32;97533.56;5055713;28;20029;-75
2021/04/29 05:56:01;;;;;;;38.22;20.13;;;;;;;11.42;48.78;97532.09;5055806;28;20074;-76
2021/04/29 05:58:26;;;;;;;41.15;20.58;;;;;;;11.56;49.05;97534.69;5055633;28;20017;-76
2021/04/29 06:00:51;;;;;;;38.92;19.40;;;;;;;11.67;48.29;97528.81;5055531;28;20109;-76
2021/04/29 06:03:17;;;;;;;43.30;22.15;;;;;;;11.83;49.14;97529.09;5055547;28;20400;-75
2021/04/29 06:05:42;;;;;;;38.17;20.27;;;;;;;12.00;49.00;97531.03;5055523;28;20040;-75
2021/04/29 06:08:08;;;;;;;41.53;21.90;;;;;;;12.17;48.32;97521.94;5055403;28;20048;-75
2021/04/29 06:10:35;;;;;;;45.20;20.33;;;;;;;12.35;48.09;97523.44;5054067;28;20104;-76
2021/04/29 06:13:02;;;;;;;40.38;20.50;;;;;;;12.49;48.05;97523.22;5055558;28;20086;-76
2021/04/29 06:15:27;;;;;;;29.27;15.40;;;;;;;12.63;48.36;97530.41;5055383;28;20436;-77
2021/04/29 06:17:52;;;;;;;33.05;17.05;;;;;;;12.76;48.11;97523.06;5053729;28;20083;-75
2021/04/29 06:20:18;;;;;;;28.63;15.45;;;;;;;12.84;47.77;97529.66;5055067;28;20385;-75
2021/04/29 06:22:44;;;;;;;29.33;15.38;;;;;;;12.94;48.16;97521.00;5055124;28;20388;-75
2021/04/29 06:25:09;;;;;;;30.92;16.20;;;;;;;13.04;48.07;97520.59;5054709;28;20032;-76
2021/04/29 06:27:36;;;;;;;33.80;17.77;;;;;;;13.22;48.12;97523.22;5055039;28;20374;-76
2021/04/29 06:30:02;;;;;;;34.05;16.50;;;;;;;13.35;47.92;97524.88;5055040;28;20028;-76
2021/04/29 06:32:28;;;;;;;30.13;17.48;;;;;;;13.40;47.96;97521.91;5054697;28;20500;-76
2021/04/29 06:34:53;;;;;;;33.67;17.52;;;;;;;13.48;47.71;97525.75;5054811;28;20063;-76
2021/04/29 06:37:19;;;;;;;29.52;15.25;;;;;;;13.53;47.22;97520.03;5054737;28;20025;-77
2021/04/29 06:39:46;;;;;;;31.80;15.20;;;;;;;13.56;47.48;97518.56;5054827;28;20029;-78
2021/04/29 06:42:11;;;;;;;24.60;14.07;;;;;;;13.55;47.18;97515.00;5054618;28;20027;-78
2021/04/29 06:44:37;;;;;;;29.40;15.57;;;;;;;13.53;47.09;97517.28;5054435;28;20033;-78
2021/04/29 06:47:02;;;;;;;26.63;14.18;;;;;;;13.59;47.28;97523.41;5054614;28;20056;-77
2021/04/29 06:49:28;;;;;;;31.38;15.85;;;;;;;13.68;47.23;97524.09;5054178;28;20369;-77
2021/04/29 06:51:54;;;;;;;28.30;14.48;;;;;;;13.86;47.62;97523.13;5054388;28;20108;-78
2021/04/29 06:54:20;;;;;;;28.65;15.18;;;;;;;13.92;47.65;97519.81;5054546;28;20025;-78
2021/04/29 06:56:45;;;;;;;37.40;15.73;;;;;;;14.03;47.23;97520.16;5054563;28;20036;-77
2021/04/29 06:59:11;;;;;;;30.15;15.07;;;;;;;14.17;47.56;97514.31;5054812;28;20025;-78
2021/04/29 07:01:37;;;;;;;28.55;14.48;;;;;;;14.31;47.40;97522.25;5054425;28;20103;-77
2021/04/29 07:04:03;;;;;;;30.45;14.40;;;;;;;14.40;47.64;97511.13;5054413;28;20465;-77
2021/04/29 07:06:28;;;;;;;57.47;21.48;;;;;;;14.42;47.33;97509.63;5054357;28;20414;-78
2021/04/29 07:08:54;;;;;;;32.70;14.50;;;;;;;14.51;46.92;97509.50;5054167;28;20469;-78
2021/04/29 07:11:20;;;;;;;33.08;15.38;;;;;;;14.65;47.43;97508.34;5054479;28;20040;-78
2021/04/29 07:13:48;;;;;;;30.83;15.10;;;;;;;14.78;47.06;97509.16;5054459;28;20095;-79
2021/04/29 07:16:13;;;;;;;26.83;12.75;;;;;;;14.88;47.32;97511.44;5053972;28;20045;-79
2021/04/29 07:18:39;;;;;;;27.63;12.77;;;;;;;14.99;46.92;97503.47;5054133;28;20021;-79
2021/04/29 07:21:04;;;;;;;26.15;12.68;;;;;;;15.10;47.16;97504.59;5053976;28;20064;-78
2021/04/29 07:23:30;;;;;;;26.92;11.73;;;;;;;15.20;46.67;97502.50;5053897;28;20029;-78
2021/04/29 07:25:56;;;;;;;38.85;16.83;;;;;;;15.20;46.78;97500.53;5053862;28;20040;-76
2021/04/29 07:28:22;;;;;;;35.00;16.60;;;;;;;15.24;46.61;97493.16;5053670;28;20029;-76
2021/04/29 07:30:48;;;;;;;23.67;12.18;;;;;;;15.25;47.18;97499.50;5053744;28;20025;-76
2021/04/29 07:33:13;;;;;;;26.42;12.80;;;;;;;15.21;46.89;97501.34;5053675;28;20028;-76
2021/04/29 07:35:39;;;;;;;29.20;12.90;;;;;;;15.23;46.90;97499.84;5053559;28;20025;-77
2021/04/29 07:38:05;;;;;;;23.02;11.05;;;;;;;15.29;46.85;97501.22;5053615;28;20029;-76
2021/04/29 07:40:32;;;;;;;25.67;12.20;;;;;;;15.32;47.03;97502.44;5053634;28;20033;-77
2021/04/29 07:42:57;;;;;;;24.95;12.18;;;;;;;15.40;46.74;97498.75;5053273;28;20044;-75
2021/04/29 07:45:23;;;;;;;23.70;11.98;;;;;;;15.49;47.08;97501.34;5052570;28;20025;-76
2021/04/29 07:47:48;;;;;;;20.17;10.50;;;;;;;15.50;47.63;97504.91;5052996;28;20024;-76
2021/04/29 07:50:14;;;;;;;25.88;13.38;;;;;;;15.37;47.46;97502.19;5053037;28;20043;-76
2021/04/29 07:52:41;;;;;;;19.33;10.48;;;;;;;15.35;47.24;97496.22;5051216;28;20067;-76
2021/04/29 07:55:08;;;;;;;21.02;9.82;;;;;;;15.34;47.41;97500.13;5051103;28;20025;-76
2021/04/29 07:57:33;;;;;;;24.23;11.63;;;;;;;15.31;47.84;97501.66;5051382;28;20051;-76
2021/04/29 07:59:59;;;;;;;21.25;10.55;;;;;;;15.31;47.84;97507.19;5051906;28;20024;-76
2021/04/29 08:02:24;;;;;;;25.20;12.43;;;;;;;15.31;47.61;97496.13;5051053;28;20049;-76
2021/04/29 08:04:49;;;;;;;22.00;11.05;;;;;;;15.35;48.07;97498.19;5052204;28;20029;-76
2021/04/29 08:07:15;;;;;;;27.00;13.40;;;;;;;15.45;47.91;97506.78;5052864;28;20401;-76
2021/04/29 08:09:40;;;;;;;22.90;11.77;;;;;;;15.60;47.70;97496.91;5053124;28;20118;-76
2021/04/29 08:12:06;;;;;;;26.02;12.68;;;;;;;15.77;47.95;97498.56;5053335;28;20487;-76
2021/04/29 08:14:31;;;;;;;25.00;12.90;;;;;;;15.88;47.69;97506.38;5052971;28;20025;-76
2021/04/29 08:16:56;;;;;;;22.98;11.65;;;;;;;15.88;47.20;97498.06;5052928;28;20055;-75
2021/04/29 08:19:22;;;;;;;24.73;12.52;;;;;;;15.88;47.15;97495.31;5052982;28;20041;-76
2021/04/29 08:21:47;;;;;;;21.27;11.65;;;;;;;15.95;47.52;97503.78;5052797;28;20025;-76
2021/04/29 08:24:13;;;;;;;28.10;12.60;;;;;;;16.05;47.28;97499.69;5052848;28;20036;-76
2021/04/29 08:26:39;;;;;;;25.63;12.00;;;;;;;16.19;47.12;97496.47;5052850;28;20025;-75
2021/04/29 08:29:04;;;;;;;24.55;13.57;;;;;;;16.20;46.70;97493.34;5052802;28;20020;-75
2021/04/29 08:31:30;;;;;;;24.92;12.60;;;;;;;16.22;46.73;97495.75;5051565;28;20481;-75
2021/04/29 08:33:56;;;;;;;25.30;12.82;;;;;;;16.17;46.31;97491.31;5052822;28;20477;-75
2021/04/29 08:36:21;;;;;;;31.70;14.63;;;;;;;16.19;47.02;97496.47;5052942;28;20453;-75
2021/04/29 08:38:46;;;;;;;25.48;13.10;;;;;;;16.24;46.60;97493.44;5052487;28;20036;-75
2021/04/29 08:41:12;;;;;;;22.85;12.05;;;;;;;16.30;47.01;97496.75;5052687;28;20469;-75
2021/04/29 08:43:37;;;;;;;21.95;11.15;;;;;;;16.29;46.89;97490.41;5052496;28;20039;-75
2021/04/29 08:46:05;;;;;;;27.83;12.48;;;;;;;16.31;46.63;97485.31;5052443;28;20480;-75
2021/04/29 08:48:30;;;;;;;25.95;13.07;;;;;;;16.35;46.51;97490.91;5052426;28;20025;-75
2021/04/29 08:50:56;;;;;;;23.27;12.18;;;;;;;16.36;46.31;97484.22;5052429;28;20017;-75
2021/04/29 08:53:21;;;;;;;19.85;9.60;;;;;;;16.50;46.28;97486.56;5052459;28;20547;-76
2021/04/29 08:55:46;;;;;;;24.20;11.88;;;;;;;16.56;46.13;97487.06;5052180;28;20067;-75
2021/04/29 08:58:12;;;;;;;19.00;10.27;;;;;;;16.51;46.42;97491.72;5052353;28;20055;-76
2021/04/29 09:00:38;;;;;;;26.05;12.38;;;;;;;16.48;46.05;97491.66;5051056;28;20028;-76
2021/04/29 09:03:04;;;;;;;20.95;9.82;;;;;;;16.47;45.71;97496.38;5052218;28;20070;-76
2021/04/29 09:05:33;;;;;;;24.67;11.70;;;;;;;16.44;45.81;97491.53;5052091;28;20031;-76
2021/04/29 09:08:09;;;;;;;21.23;11.30;;;;;;;16.46;46.09;97489.22;5052074;28;20104;-76
2021/04/29 09:10:37;;;;;;;25.17;12.18;;;;;;;16.43;45.76;97489.94;5052207;28;20051;-76
2021/04/29 09:13:24;;;;;;;22.83;11.40;;;;;;;16.51;46.36;97488.13;5052183;28;20104;-77
2021/04/29 09:15:51;;;;;;;23.67;10.65;;;;;;;16.58;46.13;97484.75;5052190;28;20068;-77
2021/04/29 09:18:17;;;;;;;24.23;11.65;;;;;;;16.65;46.15;97485.69;5056404;28;20041;-76
2021/04/29 09:20:54;;;;;;;22.17;11.23;;;;;;;16.80;46.62;97494.34;5056203;28;20029;-77
2021/04/29 09:23:28;;;;;;;27.70;13.07;;;;;;;16.92;46.07;97482.31;5056077;28;20025;-76
2021/04/29 09:26:05;;;;;;;26.30;12.98;;;;;;;17.09;46.23;97487.50;5056017;28;20083;-76
2021/04/29 09:28:50;;;;;;;27.60;12.02;;;;;;;17.15;45.45;97492.72;5056178;28;20056;-76
2021/04/29 09:31:24;;;;;;;27.98;13.15;;;;;;;17.04;45.17;97492.50;5056118;28;20032;-76
2021/04/29 09:33:57;;;;;;;32.35;14.02;;;;;;;16.87;45.47;97486.19;5056106;28;20478;-76
2021/04/29 09:36:37;;;;;;;24.38;12.20;;;;;;;16.80;46.34;97480.50;5056044;28;20071;-76
2021/04/29 09:39:07;;;;;;;30.10;14.02;;;;;;;16.73;46.31;97485.88;5056044;28;20025;-76
2021/04/29 09:41:46;;;;;;;25.67;13.40;;;;;;;16.70;46.74;97483.81;5055960;28;20033;-76
2021/04/29 09:44:19;;;;;;;29.13;13.25;;;;;;;16.69;47.65;97482.22;5055923;28;20025;-76
2021/04/29 09:46:59;;;;;;;24.65;13.23;;;;;;;16.80;47.83;97483.25;5055833;28;20029;-76
2021/04/29 09:49:35;;;;;;;22.35;12.68;;;;;;;16.84;47.27;97484.16;5056078;28;20171;-76
2021/04/29 09:52:04;;;;;;;26.88;13.40;;;;;;;16.84;46.66;97486.91;5055665;28;20017;-76
2021/04/29 09:54:39;;;;;;;28.88;10.85;;;;;;;16.98;47.55;97477.31;5055809;28;20036;-76
2021/04/29 09:57:11;;;;;;;24.73;11.68;;;;;;;17.15;47.82;97470.56;5055747;28;20039;-76
2021/04/29 09:59:42;;;;;;;24.25;11.10;;;;;;;17.36;46.83;97478.50;5055504;28;20032;-76
2021/04/29 10:02:10;;;;;;;25.10;11.68;;;;;;;17.47;46.45;97470.41;5055560;28;20570;-77
2021/04/29 10:04:38;;;;;;;25.73;12.13;;;;;;;17.44;46.22;97474.72;5055548;28;20039;-77
2021/04/29 10:07:03;;;;;;;21.48;10.13;;;;;;;17.44;45.84;97480.25;5055404;28;20056;-75
2021/04/29 10:09:31;;;;;;;23.67;12.43;;;;;;;17.43;45.72;97478.66;5054057;28;20037;-76
2021/04/29 10:12:07;;;;;;;24.10;12.45;;;;;;;17.38;46.18;97471.44;5053946;28;20028;-76
2021/04/29 10:14:41;;;;;;;24.55;12.30;;;;;;;17.33;45.94;97473.69;5055602;28;20029;-76
2021/04/29 10:17:09;;;;;;;20.25;10.23;;;;;;;17.43;45.78;97478.66;5055077;28;20041;-76
2021/04/29 10:19:39;;;;;;;25.75;11.85;;;;;;;17.44;45.52;97477.47;5055147;28;20033;-76
2021/04/29 10:22:06;;;;;;;23.98;11.90;;;;;;;17.31;45.30;97485.16;5055374;28;20029;-75
2021/04/29 10:24:34;;;;;;;26.10;12.60;;;;;;;17.22;45.71;97476.25;5055038;28;20064;-76
2021/04/29 10:27:02;;;;;;;24.25;11.45;;;;;;;17.22;46.03;97474.28;5055339;28;20029;-77
2021/04/29 10:29:27;;;;;;;21.27;10.88;;;;;;;17.22;45.53;97468.75;5058889;28;20377;-77
2021/04/29 10:31:58;;;;;;;23.38;11.18;;;;;;;17.34;45.64;97469.75;5097804;28;20025;-77
2021/04/29 10:34:35;;;;;;;24.95;11.45;;;;;;;17.53;45.59;97472.50;5057761;28;20056;-76
2021/04/29 10:37:12;;;;;;;19.60;10.98;;;;;;;17.72;45.58;97459.81;5055022;28;20043;-76
2021/04/29 10:39:59;;;;;;;24.25;11.32;;;;;;;17.81;45.08;97467.88;5052394;28;20057;-76
2021/04/29 10:42:30;;;;;;;24.73;11.48;;;;;;;17.88;45.39;97481.06;5054805;28;20079;-77
2021/04/29 10:45:08;;;;;;;21.65;10.70;;;;;;;18.03;44.68;97474.63;5054840;28;20057;-76
2021/04/29 10:47:35;;;;;;;24.17;11.77;;;;;;;18.02;44.21;97469.44;5054691;28;20028;-76
2021/04/29 10:50:11;;;;;;;27.20;12.60;;;;;;;18.02;44.50;97480.53;5054696;28;20414;-76
2021/04/29 10:52:57;;;;;;;26.83;13.23;;;;;;;18.00;44.69;97478.13;5054450;28;20025;-76
2021/04/29 10:55:22;;;;;;;22.25;11.15;;;;;;;18.01;43.95;97476.97;5054474;28;20104;-77
2021/04/29 10:57:48;;;;;;;22.90;10.85;;;;;;;17.99;44.50;97469.00;5054327;28;20100;-77
2021/04/29 11:00:14;;;;;;;25.42;13.00;;;;;;;18.09;44.39;97478.69;5054107;28;20096;-75
2021/04/29 11:02:39;;;;;;;28.50;12.75;;;;;;;18.23;44.12;97478.13;5054263;28;20060;-76
2021/04/29 11:05:07;;;;;;;22.70;12.70;;;;;;;18.15;43.92;97482.75;5054191;28;20124;-76
2021/04/29 11:07:43;;;;;;;26.30;12.48;;;;;;;18.13;43.66;97476.78;5054082;28;20155;-76
2021/04/29 11:10:11;;;;;;;26.73;11.48;;;;;;;18.08;43.53;97477.09;5054068;28;20024;-76
2021/04/29 11:12:45;;;;;;;23.98;12.80;;;;;;;18.09;43.82;97477.88;5053867;28;20477;-76
2021/04/29 11:15:21;;;;;;;26.58;13.40;;;;;;;18.23;43.76;97472.56;5054148;28;20094;-76
2021/04/29 11:17:58;;;;;;;20.40;9.77;;;;;;;18.26;43.35;97474.63;5053730;28;20128;-76
2021/04/29 11:20:23;;;;;;;25.70;12.68;;;;;;;18.26;43.05;97468.25;5054027;28;20067;-75
2021/04/29 11:22:54;;;;;;;24.88;12.88;;;;;;;18.20;43.36;97472.50;5053775;28;20444;-76